createdAt,value
2022-12-23T00:00:43.776Z,113.18
2022-12-23T00:03:11.179Z,101.95
2022-12-23T00:05:39.348Z,101.53
2022-12-23T00:08:07.782Z,125.72
2022-12-23T00:10:39.535Z,108.27
2022-12-23T00:13:25.992Z,123.80
2022-12-23T00:16:04.393Z,118.90
2022-12-23T00:18:31.580Z,107.37
2022-12-23T00:21:06.644Z,108.25
2022-12-23T00:23:37.357Z,101.30
2022-12-23T00:26:05.611Z,121.15
2022-12-23T00:28:33.141Z,115.22
2022-12-23T00:31:05.901Z,112.93
2022-12-23T00:33:44.666Z,105.65
2022-12-23T00:36:27.723Z,117.67
2022-12-23T00:39:14.013Z,116.82
2022-12-23T00:41:59.818Z,116.55
2022-12-23T00:44:26.895Z,123.45
2022-12-23T00:46:53.825Z,130.32
2022-12-23T00:49:40.328Z,116.00
2022-12-23T00:52:09.463Z,133.07
2022-12-23T00:54:36.635Z,110.50
2022-12-23T00:57:03.926Z,125.18
2022-12-23T00:59:31.525Z,163.07
2022-12-23T01:02:17.429Z,132.27
2022-12-23T01:05:03.379Z,128.60
2022-12-23T01:07:30.322Z,113.93
2022-12-23T01:09:57.192Z,124.65
2022-12-23T01:12:24.108Z,155.93
2022-12-23T01:14:51.261Z,104.97
2022-12-23T01:17:18.762Z,105.15
2022-12-23T01:19:46.718Z,189.20
2022-12-23T01:22:13.697Z,132.82
2022-12-23T01:24:40.687Z,123.75
2022-12-23T01:27:07.598Z,116.87
2022-12-23T01:29:37.586Z,104.97
2022-12-23T01:32:04.819Z,103.78
2022-12-23T01:34:36.671Z,126.22
2022-12-23T01:37:04.948Z,128.52
2022-12-23T01:39:32.029Z,133.87
2022-12-23T01:42:17.606Z,119.62
2022-12-23T01:45:21.630Z,113.82
2022-12-23T01:47:48.423Z,127.47
2022-12-23T01:50:35.441Z,121.65
2022-12-23T01:53:12.238Z,116.03
2022-12-23T01:55:52.155Z,115.97
2022-12-23T01:58:30.525Z,129.43
2022-12-23T02:01:17.707Z,111.68
2022-12-23T02:03:45.959Z,108.53
2022-12-23T02:06:34.181Z,107.83
2022-12-23T02:09:19.518Z,151.37
2022-12-23T02:12:07.955Z,129.07
2022-12-23T02:15:12.575Z,105.65
2022-12-23T02:17:58.068Z,142.75
2022-12-23T02:20:39.348Z,106.87
2022-12-23T02:23:18.246Z,167.82
2022-12-23T02:25:54.411Z,97.62
2022-12-23T02:28:43.934Z,127.62
2022-12-23T02:31:25.062Z,169.70
2022-12-23T02:34:16.633Z,127.87
2022-12-23T02:37:34.137Z,136.18
2022-12-23T02:40:19.447Z,170.00
2022-12-23T02:43:09.078Z,284.52
2022-12-23T02:45:44.348Z,210.95
2022-12-23T02:48:20.196Z,139.27
2022-12-23T02:50:49.032Z,142.35
2022-12-23T02:53:29.621Z,116.75
2022-12-23T02:55:59.282Z,161.40
2022-12-23T02:58:37.723Z,168.07
2022-12-23T03:01:07.217Z,187.60
2022-12-23T03:03:35.729Z,165.10
2022-12-23T03:06:13.475Z,246.60
2022-12-23T03:08:43.659Z,202.87
2022-12-23T03:11:18.318Z,134.52
2022-12-23T03:14:13.120Z,134.40
2022-12-23T03:17:09.350Z,210.07
2022-12-23T03:19:54.610Z,141.02
2022-12-23T03:22:36.232Z,122.53
2022-12-23T03:25:14.121Z,152.12
2022-12-23T03:27:49.838Z,123.13
2022-12-23T03:30:19.710Z,97.25
2022-12-23T03:32:49.471Z,109.40
2022-12-23T03:35:20.152Z,148.93
2022-12-23T03:37:50.541Z,255.87
2022-12-23T03:40:30.267Z,169.77
2022-12-23T03:43:13.975Z,128.00
2022-12-23T03:45:47.978Z,150.12
2022-12-23T03:48:35.754Z,100.55
2022-12-23T03:51:11.711Z,94.90
2022-12-23T03:53:46.730Z,96.60
2022-12-23T03:56:23.097Z,95.25
2022-12-23T03:58:59.375Z,101.57
2022-12-23T04:02:13.802Z,107.78
2022-12-23T04:04:55.778Z,105.50
2022-12-23T04:07:27.679Z,116.97
2022-12-23T04:09:55.696Z,113.37
2022-12-23T04:12:25.145Z,124.80
2022-12-23T04:14:52.042Z,99.32
2022-12-23T04:17:19.851Z,106.93
2022-12-23T04:19:50.866Z,104.83
2022-12-23T04:22:17.694Z,112.35
2022-12-23T04:24:44.646Z,101.80
2022-12-23T04:27:15.509Z,126.25
2022-12-23T04:29:43.834Z,108.72
2022-12-23T04:32:10.924Z,115.10
2022-12-23T04:34:37.812Z,111.55
2022-12-23T04:37:04.664Z,120.37
2022-12-23T04:39:31.572Z,119.28
2022-12-23T04:41:58.487Z,122.45
2022-12-23T04:44:25.329Z,163.17
2022-12-23T04:46:52.353Z,201.12
2022-12-23T04:49:19.528Z,202.25
2022-12-23T04:51:46.692Z,172.75
2022-12-23T04:54:13.691Z,214.75
2022-12-23T04:56:40.587Z,195.57
2022-12-23T04:59:07.450Z,267.62
2022-12-23T05:01:34.455Z,197.70
2022-12-23T05:04:01.436Z,282.65
2022-12-23T05:06:28.339Z,203.37
2022-12-23T05:08:55.240Z,233.90
2022-12-23T05:11:22.227Z,213.02
2022-12-23T05:13:49.074Z,203.05
2022-12-23T05:16:15.987Z,220.40
2022-12-23T05:18:42.916Z,267.15
2022-12-23T05:21:09.861Z,254.07
2022-12-23T05:23:36.839Z,245.77
2022-12-23T05:26:03.917Z,212.10
2022-12-23T05:28:31.279Z,210.02
2022-12-23T05:31:03.786Z,195.62
2022-12-23T05:33:31.401Z,257.23
2022-12-23T05:35:58.778Z,217.80
2022-12-23T05:38:26.375Z,232.93
2022-12-23T05:40:53.329Z,218.07
2022-12-23T05:43:20.811Z,196.55
2022-12-23T05:45:48.909Z,225.80
2022-12-23T05:48:16.120Z,194.30
2022-12-23T05:50:43.121Z,209.98
2022-12-23T05:53:10.202Z,229.50
2022-12-23T05:55:37.095Z,124.22
2022-12-23T05:58:03.986Z,154.13
2022-12-23T06:00:30.954Z,147.05
2022-12-23T06:02:58.018Z,161.32
2022-12-23T06:05:25.086Z,157.62
2022-12-23T06:07:52.590Z,149.30
2022-12-23T06:10:19.983Z,217.07
2022-12-23T06:12:46.867Z,116.53
2022-12-23T06:15:13.776Z,168.87
2022-12-23T06:17:40.627Z,151.57
2022-12-23T06:20:16.283Z,219.00
2022-12-23T06:22:47.065Z,325.03
2022-12-23T06:25:14.070Z,178.32
2022-12-23T06:27:41.070Z,166.25
2022-12-23T06:30:10.334Z,156.87
2022-12-23T06:32:38.971Z,153.02
2022-12-23T06:35:07.696Z,137.93
2022-12-23T06:37:35.168Z,167.25
2022-12-23T06:40:04.831Z,137.10
2022-12-23T06:42:31.811Z,184.25
2022-12-23T06:44:58.705Z,165.68
2022-12-23T06:47:25.531Z,199.67
2022-12-23T06:49:53.182Z,184.55
2022-12-23T06:52:20.202Z,144.13
2022-12-23T06:54:47.139Z,140.37
2022-12-23T06:57:13.984Z,125.97
2022-12-23T06:59:43.383Z,145.43
2022-12-23T07:02:12.176Z,125.38
2022-12-23T07:04:39.334Z,154.18
2022-12-23T07:07:06.259Z,151.65
2022-12-23T07:09:33.639Z,120.85
2022-12-23T07:12:02.815Z,164.73
2022-12-23T07:14:29.780Z,117.25
2022-12-23T07:16:56.662Z,135.95
2022-12-23T07:19:24.457Z,127.10
2022-12-23T07:21:51.528Z,130.48
2022-12-23T07:24:18.480Z,100.40
2022-12-23T07:26:45.473Z,100.10
2022-12-23T07:29:12.424Z,127.57
2022-12-23T07:31:41.049Z,107.72
2022-12-23T07:34:08.783Z,128.77
2022-12-23T07:36:35.729Z,84.13
2022-12-23T07:39:02.627Z,77.55
2022-12-23T07:41:29.602Z,78.07
2022-12-23T07:43:56.535Z,86.30
2022-12-23T07:46:23.397Z,72.53
2022-12-23T07:48:50.368Z,95.00
2022-12-23T07:51:17.471Z,45.90
2022-12-23T07:53:49.045Z,66.03
2022-12-23T07:56:16.154Z,68.00
2022-12-23T07:58:52.394Z,92.78
2022-12-23T08:01:20.310Z,92.77
2022-12-23T08:03:47.824Z,97.20
2022-12-23T08:06:16.429Z,55.08
2022-12-23T08:08:45.620Z,79.40
2022-12-23T08:11:14.523Z,88.37
2022-12-23T08:13:43.421Z,79.07
2022-12-23T08:16:11.026Z,92.47
2022-12-23T08:18:40.703Z,85.57
2022-12-23T08:21:12.949Z,70.43
2022-12-23T08:23:39.811Z,67.30
2022-12-23T08:26:10.214Z,66.20
2022-12-23T08:28:39.068Z,74.85
2022-12-23T08:31:21.128Z,63.28
2022-12-23T08:33:52.041Z,47.95
2022-12-23T08:36:23.351Z,60.92
2022-12-23T08:38:55.399Z,44.57
2022-12-23T08:41:25.171Z,51.42
2022-12-23T08:43:52.781Z,59.22
2022-12-23T08:46:20.174Z,59.13
2022-12-23T08:48:49.720Z,56.08
2022-12-23T08:51:19.694Z,56.23
2022-12-23T08:53:47.688Z,70.60
2022-12-23T08:56:20.434Z,51.60
2022-12-23T08:58:49.788Z,63.72
2022-12-23T09:01:18.822Z,62.47
2022-12-23T09:03:46.402Z,67.93
2022-12-23T09:06:16.675Z,43.05
2022-12-23T09:08:44.286Z,60.67
2022-12-23T09:11:20.147Z,68.97
2022-12-23T09:13:47.119Z,69.78
2022-12-23T09:16:14.372Z,74.70
2022-12-23T09:18:42.051Z,51.70
2022-12-23T09:21:19.917Z,55.35
2022-12-23T09:23:47.338Z,51.40
2022-12-23T09:26:22.460Z,56.53
2022-12-23T09:28:49.735Z,48.60
2022-12-23T09:31:17.203Z,59.30
2022-12-23T09:33:47.020Z,78.35
2022-12-23T09:36:14.007Z,57.45
2022-12-23T09:38:40.984Z,59.25
2022-12-23T09:41:17.902Z,60.73
2022-12-23T09:43:59.967Z,55.95
2022-12-23T09:46:30.635Z,51.17
2022-12-23T09:49:11.194Z,41.13
2022-12-23T09:51:38.521Z,46.75
2022-12-23T09:54:17.429Z,57.30
2022-12-23T09:57:02.476Z,45.40
2022-12-23T09:59:51.112Z,50.67
2022-12-23T10:02:42.353Z,54.78
2022-12-23T10:05:24.339Z,35.70
2022-12-23T10:07:59.047Z,50.20
2022-12-23T10:10:31.904Z,39.42
2022-12-23T10:13:02.031Z,54.50
2022-12-23T10:15:37.477Z,54.70
2022-12-23T10:18:26.831Z,54.70
2022-12-23T10:21:03.868Z,61.97
2022-12-23T10:23:37.286Z,59.90
2022-12-23T10:26:14.478Z,63.72
2022-12-23T10:28:41.543Z,64.35
2022-12-23T10:34:22.745Z,51.63
2022-12-23T10:37:07.002Z,68.18
2022-12-23T10:39:41.109Z,58.15
2022-12-23T10:42:20.440Z,64.97
2022-12-23T10:44:54.128Z,69.53
2022-12-23T10:47:42.665Z,78.23
2022-12-23T10:50:52.497Z,70.10
2022-12-23T10:53:45.955Z,82.60
2022-12-23T10:56:13.709Z,56.70
2022-12-23T10:58:46.754Z,38.42
2022-12-23T11:01:26.221Z,55.97
2022-12-23T11:04:19.330Z,63.80
2022-12-23T11:07:18.288Z,66.10
2022-12-23T11:09:51.202Z,45.25
2022-12-23T11:12:23.590Z,52.13
2022-12-23T11:14:57.809Z,47.83
2022-12-23T11:17:29.995Z,56.15
2022-12-23T11:20:13.174Z,49.60
2022-12-23T11:22:49.408Z,45.47
2022-12-23T11:25:36.137Z,53.05
2022-12-23T11:28:06.189Z,47.60
2022-12-23T11:30:38.669Z,58.45
2022-12-23T11:33:06.690Z,54.38
2022-12-23T11:35:36.971Z,56.60
2022-12-23T11:38:04.394Z,43.83
2022-12-23T11:40:38.203Z,50.13
2022-12-23T11:43:11.973Z,55.42
2022-12-23T11:45:39.162Z,50.20
2022-12-23T11:48:25.773Z,56.17
2022-12-23T11:51:01.270Z,51.45
2022-12-23T11:53:28.912Z,56.10
2022-12-23T11:56:10.698Z,52.35
2022-12-23T11:58:53.307Z,50.58
2022-12-23T12:01:24.233Z,50.67
2022-12-23T12:04:02.792Z,56.85
2022-12-23T12:06:31.527Z,60.77
2022-12-23T12:09:00.145Z,42.17
2022-12-23T12:11:37.972Z,54.58
2022-12-23T12:14:07.502Z,66.82
2022-12-23T12:16:53.046Z,50.47
2022-12-23T12:19:28.807Z,56.30
2022-12-23T12:22:02.185Z,56.10
2022-12-23T12:24:31.086Z,55.15
2022-12-23T12:27:03.527Z,57.22
2022-12-23T12:29:57.331Z,55.85
2022-12-23T12:32:48.887Z,55.53
2022-12-23T12:35:25.744Z,64.47
2022-12-23T12:37:59.524Z,57.28
2022-12-23T12:40:38.832Z,58.47
2022-12-23T12:43:21.069Z,69.85
2022-12-23T12:45:53.135Z,70.10
2022-12-23T12:48:32.028Z,68.55
2022-12-23T12:51:05.751Z,79.85
2022-12-23T12:53:33.812Z,58.85
2022-12-23T12:56:11.002Z,55.63
2022-12-23T12:58:40.270Z,70.10
2022-12-23T13:01:17.366Z,51.92
2022-12-23T13:04:04.433Z,61.15
2022-12-23T13:06:44.780Z,61.50
2022-12-23T13:09:36.344Z,60.88
2022-12-23T13:12:15.025Z,56.63
2022-12-23T13:14:56.492Z,62.95
2022-12-23T13:17:28.838Z,61.13
2022-12-23T13:20:11.054Z,55.10
2022-12-23T13:22:39.985Z,57.50
2022-12-23T13:25:40.389Z,53.10
2022-12-23T13:28:16.875Z,61.63
2022-12-23T13:30:54.404Z,51.35
2022-12-23T13:33:44.875Z,61.58
2022-12-23T13:36:35.527Z,62.50
2022-12-23T13:39:23.219Z,83.97
2022-12-23T13:41:57.398Z,75.28
2022-12-23T13:44:30.359Z,74.03
2022-12-23T13:47:22.630Z,57.78
2022-12-23T13:50:05.883Z,66.50
2022-12-23T13:52:50.972Z,74.93
2022-12-23T13:55:56.602Z,89.22
2022-12-23T13:58:28.395Z,70.07
2022-12-23T14:01:10.750Z,73.78
2022-12-23T14:03:39.132Z,67.00
2022-12-23T14:06:24.227Z,63.93
2022-12-23T14:08:52.700Z,63.40
2022-12-23T14:11:28.523Z,51.30
2022-12-23T14:14:15.011Z,69.50
2022-12-23T14:16:51.130Z,68.40
2022-12-23T14:19:42.628Z,62.97
2022-12-23T14:22:34.613Z,62.50
2022-12-23T14:25:32.116Z,60.38
2022-12-23T14:28:28.111Z,65.55
2022-12-23T14:30:56.265Z,68.90
2022-12-23T14:33:29.199Z,61.30
2022-12-23T14:36:25.492Z,58.80
2022-12-23T14:39:28.997Z,63.00
2022-12-23T14:42:01.728Z,69.85
2022-12-23T14:44:38.098Z,86.50
2022-12-23T14:47:40.553Z,63.63
2022-12-23T14:50:32.739Z,54.90
2022-12-23T14:53:27.039Z,57.88
2022-12-23T14:56:23.016Z,60.10
2022-12-23T15:02:29.458Z,61.67
2022-12-23T15:04:58.684Z,68.15
2022-12-23T15:07:38.772Z,74.43
2022-12-23T15:10:14.667Z,72.55
2022-12-23T15:12:46.721Z,68.00
2022-12-23T15:15:20.067Z,70.80
2022-12-23T15:17:47.529Z,72.50
2022-12-23T15:20:21.345Z,79.60
2022-12-23T15:22:49.356Z,75.72
2022-12-23T15:25:19.045Z,69.03
2022-12-23T15:27:46.357Z,69.12
2022-12-23T15:30:15.693Z,72.12
2022-12-23T15:32:50.785Z,72.68
2022-12-23T15:35:29.250Z,79.25
2022-12-23T15:37:57.414Z,74.47
2022-12-23T15:40:30.587Z,76.03
2022-12-23T15:42:58.250Z,84.82
2022-12-23T15:45:42.378Z,75.43
2022-12-23T15:48:26.255Z,84.00
2022-12-23T15:51:14.771Z,85.70
2022-12-23T15:53:45.753Z,91.30
2022-12-23T15:56:25.983Z,85.68
2022-12-23T15:58:54.653Z,81.10
2022-12-23T16:01:25.464Z,87.30
2022-12-23T16:03:58.480Z,79.23
2022-12-23T16:06:29.756Z,78.00
2022-12-23T16:09:22.868Z,91.65
2022-12-23T16:12:20.338Z,89.03
2022-12-23T16:15:00.619Z,83.22
2022-12-23T16:17:37.286Z,101.40
2022-12-23T16:20:26.399Z,86.72
2022-12-23T16:22:56.632Z,96.03
2022-12-23T16:25:31.728Z,105.37
2022-12-23T16:28:12.992Z,107.07
2022-12-23T16:30:42.792Z,114.13
2022-12-23T16:33:27.966Z,109.43
2022-12-23T16:35:56.000Z,117.32
2022-12-23T16:38:27.952Z,100.28
2022-12-23T16:40:56.733Z,119.53
2022-12-23T16:43:25.228Z,141.27
2022-12-23T16:45:55.229Z,111.88
2022-12-23T16:48:26.674Z,109.32
2022-12-23T16:50:53.979Z,101.15
2022-12-23T16:53:21.353Z,112.82
2022-12-23T16:55:55.341Z,102.27
2022-12-23T16:58:27.076Z,94.45
2022-12-23T17:00:54.131Z,102.18
2022-12-23T17:03:21.437Z,120.43
2022-12-23T17:05:48.784Z,96.82
2022-12-23T17:08:15.820Z,89.43
2022-12-23T17:10:47.018Z,94.50
2022-12-23T17:13:17.819Z,93.25
2022-12-23T17:15:45.298Z,91.95
2022-12-23T17:18:18.770Z,85.78
2022-12-23T17:20:47.976Z,111.83
2022-12-23T17:23:31.156Z,98.00
2022-12-23T17:25:58.855Z,101.87
2022-12-23T17:28:31.424Z,87.40
2022-12-23T17:30:59.000Z,79.30
2022-12-23T17:33:29.547Z,77.60
2022-12-23T17:35:56.729Z,76.37
2022-12-23T17:38:23.819Z,67.20
2022-12-23T17:40:51.336Z,82.55
2022-12-23T17:43:19.040Z,95.22
2022-12-23T17:45:46.054Z,81.20
2022-12-23T17:48:20.578Z,82.93
2022-12-23T17:50:51.814Z,84.25
2022-12-23T17:53:19.706Z,80.25
2022-12-23T17:55:46.946Z,71.05
2022-12-23T17:58:14.376Z,64.63
2022-12-23T18:00:41.800Z,72.05
2022-12-23T18:03:22.621Z,66.45
2022-12-23T18:05:52.970Z,75.93
2022-12-23T18:08:24.256Z,69.10
2022-12-23T18:10:51.235Z,79.40
2022-12-23T18:13:20.264Z,59.70
2022-12-23T18:15:47.859Z,69.28
2022-12-23T18:18:26.408Z,69.97
2022-12-23T18:20:58.438Z,87.40
2022-12-23T18:23:28.647Z,117.93
2022-12-23T18:25:56.901Z,103.75
2022-12-23T18:28:27.077Z,138.77
2022-12-23T18:30:56.860Z,84.28
2022-12-23T18:33:28.622Z,85.93
2022-12-23T18:35:56.177Z,107.63
2022-12-23T18:38:23.246Z,116.30
2022-12-23T18:40:53.937Z,79.28
2022-12-23T18:43:24.158Z,70.78
2022-12-23T18:45:53.523Z,70.32
2022-12-23T18:48:21.502Z,70.00
2022-12-23T18:50:49.030Z,76.00
2022-12-23T18:53:25.301Z,95.18
2022-12-23T18:55:53.830Z,69.18
2022-12-23T18:58:21.497Z,104.25
2022-12-23T19:00:49.311Z,97.67
2022-12-23T19:03:25.043Z,172.98
2022-12-23T19:05:53.954Z,163.32
2022-12-23T19:08:26.817Z,110.60
2022-12-23T19:10:56.036Z,90.65
2022-12-23T19:13:23.773Z,104.83
2022-12-23T19:15:50.785Z,137.50
2022-12-23T19:18:20.515Z,128.65
2022-12-23T19:20:48.826Z,86.93
2022-12-23T19:23:16.151Z,106.45
2022-12-23T19:25:50.772Z,146.63
2022-12-23T19:28:21.874Z,171.77
2022-12-23T19:30:49.281Z,134.82
2022-12-23T19:33:16.363Z,86.00
2022-12-23T19:35:44.176Z,118.20
2022-12-23T19:38:12.468Z,128.67
2022-12-23T19:40:40.724Z,118.10
2022-12-23T19:43:07.788Z,169.40
2022-12-23T19:45:34.712Z,192.43
2022-12-23T19:48:01.752Z,129.63
2022-12-23T19:50:29.202Z,126.93
2022-12-23T19:52:56.592Z,149.38
2022-12-23T19:55:24.090Z,138.43
2022-12-23T19:57:52.321Z,155.65
2022-12-23T20:00:19.597Z,167.55
2022-12-23T20:02:46.815Z,152.07
2022-12-23T20:05:14.321Z,219.30
2022-12-23T20:07:41.559Z,172.65
2022-12-23T20:10:12.100Z,141.55
2022-12-23T20:12:39.981Z,157.37
2022-12-23T20:15:08.130Z,159.37
2022-12-23T20:17:35.128Z,124.68
2022-12-23T20:20:02.328Z,97.43
2022-12-23T20:22:29.267Z,107.57
2022-12-23T20:24:56.539Z,129.85
2022-12-23T20:27:27.804Z,85.13
2022-12-23T20:29:55.557Z,135.63
2022-12-23T20:32:22.579Z,144.95
2022-12-23T20:34:50.279Z,145.95
2022-12-23T20:37:17.727Z,74.72
2022-12-23T20:39:47.518Z,75.37
2022-12-23T20:42:14.679Z,103.15
2022-12-23T20:44:41.615Z,83.82
2022-12-23T20:47:08.676Z,68.15
2022-12-23T20:49:35.819Z,77.72
2022-12-23T20:52:02.909Z,75.90
2022-12-23T20:54:33.716Z,84.20
2022-12-23T20:57:04.132Z,64.53
2022-12-23T20:59:31.199Z,74.80
2022-12-23T21:01:59.489Z,101.53
2022-12-23T21:04:26.880Z,59.53
2022-12-23T21:06:53.857Z,52.38
2022-12-23T21:09:20.644Z,61.63
2022-12-23T21:11:48.123Z,48.10
2022-12-23T21:14:15.749Z,64.15
2022-12-23T21:16:43.033Z,59.17
2022-12-23T21:19:15.910Z,50.80
2022-12-23T21:21:42.753Z,62.95
2022-12-23T21:24:10.651Z,63.45
2022-12-23T21:26:37.671Z,59.97
2022-12-23T21:29:07.000Z,89.63
2022-12-23T21:31:36.891Z,73.30
2022-12-23T21:34:05.060Z,78.90
2022-12-23T21:36:34.561Z,82.80
2022-12-23T21:39:01.707Z,112.32
2022-12-23T21:41:30.742Z,75.00
2022-12-23T21:43:58.849Z,59.65
2022-12-23T21:46:27.327Z,71.60
2022-12-23T21:48:56.269Z,109.28
2022-12-23T21:51:39.122Z,85.03
2022-12-23T21:54:08.257Z,79.87
2022-12-23T21:56:35.834Z,66.70
2022-12-23T21:59:06.013Z,62.97
2022-12-23T22:01:33.608Z,62.75
2022-12-23T22:04:00.602Z,51.22
2022-12-23T22:06:30.841Z,40.40
2022-12-23T22:08:58.676Z,47.13
2022-12-23T22:11:28.265Z,44.17
2022-12-23T22:14:00.371Z,45.40
2022-12-23T22:16:28.652Z,41.53
2022-12-23T22:18:57.097Z,41.47
2022-12-23T22:21:26.279Z,40.65
2022-12-23T22:23:54.254Z,45.00
2022-12-23T22:26:25.652Z,42.78
2022-12-23T22:28:55.498Z,42.78
2022-12-23T22:31:40.344Z,38.90
2022-12-23T22:34:09.119Z,40.33
2022-12-23T22:36:36.491Z,38.95
2022-12-23T22:39:04.945Z,36.13
2022-12-23T22:41:32.369Z,40.60
2022-12-23T22:43:59.849Z,39.27
2022-12-23T22:46:27.967Z,43.17
2022-12-23T22:48:55.269Z,39.83
2022-12-23T22:51:25.239Z,45.40
2022-12-23T22:53:52.665Z,54.95
2022-12-23T22:56:20.795Z,46.83
2022-12-23T22:58:48.417Z,47.28
2022-12-23T23:01:30.512Z,48.55
2022-12-23T23:04:00.491Z,42.08
2022-12-23T23:06:33.618Z,38.90
2022-12-23T23:09:01.374Z,42.90
2022-12-23T23:11:29.101Z,45.72
2022-12-23T23:13:56.488Z,48.25
2022-12-23T23:16:24.779Z,41.58
2022-12-23T23:18:52.782Z,42.58
2022-12-23T23:21:20.421Z,46.47
2022-12-23T23:23:47.800Z,41.05
2022-12-23T23:26:14.961Z,54.53
2022-12-23T23:28:43.047Z,68.25
2022-12-23T23:33:58.444Z,57.67
2022-12-23T23:36:25.664Z,60.17
2022-12-23T23:38:52.649Z,52.65
2022-12-23T23:41:23.421Z,58.75
2022-12-23T23:43:51.504Z,58.25
2022-12-23T23:46:18.992Z,51.10
2022-12-23T23:48:46.116Z,51.92
2022-12-23T23:51:13.069Z,47.22
2022-12-23T23:53:40.784Z,60.15
2022-12-23T23:56:09.008Z,57.05
2022-12-23T23:58:36.640Z,51.67
